sensor_id;sensor_type;location;lat;lon;timestamp;P1;durP1;ratioP1;P2;durP2;ratioP2
6374;SDS011;35400;45.472;-122.822;2022-09-12T00:01:35;14.45;;;12.13;;
6374;SDS011;35400;45.472;-122.822;2022-09-12T00:04:02;18.83;;;12.23;;
6374;SDS011;35400;45.472;-122.822;2022-09-12T00:06:30;12.98;;;11.68;;
6374;SDS011;35400;45.472;-122.822;2022-09-12T00:09:03;14.18;;;11.77;;
6374;SDS011;35400;45.472;-122.822;2022-09-12T00:11:36;16.80;;;11.77;;
6374;SDS011;35400;45.472;-122.822;2022-09-12T00:14:04;15.52;;;12.40;;
6374;SDS011;35400;45.472;-122.822;2022-09-12T00:16:33;12.90;;;11.57;;
6374;SDS011;35400;45.472;-122.822;2022-09-12T00:19:01;14.38;;;11.65;;
6374;SDS011;35400;45.472;-122.822;2022-09-12T00:21:28;14.20;;;11.25;;
6374;SDS011;35400;45.472;-122.822;2022-09-12T00:23:57;16.02;;;12.15;;
6374;SDS011;35400;45.472;-122.822;2022-09-12T00:26:24;13.75;;;12.07;;
6374;SDS011;35400;45.472;-122.822;2022-09-12T00:28:51;17.13;;;12.07;;
6374;SDS011;35400;45.472;-122.822;2022-09-12T00:31:19;16.08;;;12.02;;
6374;SDS011;35400;45.472;-122.822;2022-09-12T00:33:48;12.32;;;11.02;;
6374;SDS011;35400;45.472;-122.822;2022-09-12T00:36:17;15.80;;;12.43;;
6374;SDS011;35400;45.472;-122.822;2022-09-12T00:38:46;14.98;;;12.55;;
6374;SDS011;35400;45.472;-122.822;2022-09-12T00:41:33;15.73;;;12.52;;
6374;SDS011;35400;45.472;-122.822;2022-09-12T00:52:02;14.88;;;12.52;;
6374;SDS011;35400;45.472;-122.822;2022-09-12T00:54:42;16.75;;;12.52;;
6374;SDS011;35400;45.472;-122.822;2022-09-12T00:57:17;15.55;;;12.15;;
6374;SDS011;35400;45.472;-122.822;2022-09-12T00:59:47;14.27;;;12.15;;
6374;SDS011;35400;45.472;-122.822;2022-09-12T01:02:18;13.90;;;12.05;;
6374;SDS011;35400;45.472;-122.822;2022-09-12T01:04:45;15.52;;;12.35;;
6374;SDS011;35400;45.472;-122.822;2022-09-12T01:07:12;13.27;;;11.18;;
6374;SDS011;35400;45.472;-122.822;2022-09-12T01:09:41;15.48;;;12.40;;
6374;SDS011;35400;45.472;-122.822;2022-09-12T01:12:10;16.73;;;12.88;;
6374;SDS011;35400;45.472;-122.822;2022-09-12T01:14:39;16.13;;;12.98;;
6374;SDS011;35400;45.472;-122.822;2022-09-12T01:17:06;16.73;;;12.52;;
6374;SDS011;35400;45.472;-122.822;2022-09-12T01:25:23;17.67;;;12.52;;
6374;SDS011;35400;45.472;-122.822;2022-09-12T01:36:27;16.87;;;12.73;;
6374;SDS011;35400;45.472;-122.822;2022-09-12T01:39:27;17.20;;;13.02;;
6374;SDS011;35400;45.472;-122.822;2022-09-12T01:42:39;15.75;;;12.88;;
6374;SDS011;35400;45.472;-122.822;2022-09-12T01:45:00;14.68;;;12.77;;
6374;SDS011;35400;45.472;-122.822;2022-09-12T01:47:38;20.30;;;13.90;;
6374;SDS011;35400;45.472;-122.822;2022-09-12T01:52:49;18.33;;;13.13;;
6374;SDS011;35400;45.472;-122.822;2022-09-12T02:00:35;19.60;;;13.63;;
6374;SDS011;35400;45.472;-122.822;2022-09-12T02:03:08;17.63;;;13.38;;
6374;SDS011;35400;45.472;-122.822;2022-09-12T02:05:44;18.77;;;14.02;;
6374;SDS011;35400;45.472;-122.822;2022-09-12T02:08:24;16.13;;;13.38;;
6374;SDS011;35400;45.472;-122.822;2022-09-12T02:11:02;16.55;;;13.70;;
6374;SDS011;35400;45.472;-122.822;2022-09-12T02:13:40;23.55;;;14.40;;
6374;SDS011;35400;45.472;-122.822;2022-09-12T02:16:18;19.27;;;14.63;;
6374;SDS011;35400;45.472;-122.822;2022-09-12T02:18:51;18.17;;;13.90;;
6374;SDS011;35400;45.472;-122.822;2022-09-12T02:21:20;18.98;;;13.65;;
6374;SDS011;35400;45.472;-122.822;2022-09-12T02:23:54;18.75;;;14.40;;
6374;SDS011;35400;45.472;-122.822;2022-09-12T02:26:24;18.48;;;13.60;;
6374;SDS011;35400;45.472;-122.822;2022-09-12T02:28:58;15.95;;;14.25;;
6374;SDS011;35400;45.472;-122.822;2022-09-12T02:39:32;17.45;;;14.20;;
6374;SDS011;35400;45.472;-122.822;2022-09-12T02:41:59;17.52;;;14.40;;
6374;SDS011;35400;45.472;-122.822;2022-09-12T02:44:28;20.48;;;14.60;;
6374;SDS011;35400;45.472;-122.822;2022-09-12T02:47:19;18.45;;;13.98;;
6374;SDS011;35400;45.472;-122.822;2022-09-12T02:49:47;16.52;;;14.63;;
6374;SDS011;35400;45.472;-122.822;2022-09-12T02:52:14;17.25;;;14.85;;
6374;SDS011;35400;45.472;-122.822;2022-09-12T02:54:41;18.90;;;13.77;;
6374;SDS011;35400;45.472;-122.822;2022-09-12T02:57:18;17.38;;;15.13;;
6374;SDS011;35400;45.472;-122.822;2022-09-12T02:59:46;16.45;;;14.75;;
6374;SDS011;35400;45.472;-122.822;2022-09-12T03:05:12;20.90;;;16.48;;
6374;SDS011;35400;45.472;-122.822;2022-09-12T03:27:58;19.52;;;16.17;;
6374;SDS011;35400;45.472;-122.822;2022-09-12T03:30:46;20.08;;;16.20;;
6374;SDS011;35400;45.472;-122.822;2022-09-12T03:33:15;19.92;;;16.77;;
6374;SDS011;35400;45.472;-122.822;2022-09-12T03:35:43;19.67;;;15.85;;
6374;SDS011;35400;45.472;-122.822;2022-09-12T03:38:10;23.15;;;16.42;;
6374;SDS011;35400;45.472;-122.822;2022-09-12T03:40:37;21.42;;;17.45;;
6374;SDS011;35400;45.472;-122.822;2022-09-12T03:43:05;18.30;;;15.50;;
6374;SDS011;35400;45.472;-122.822;2022-09-12T03:45:33;19.48;;;15.90;;
6374;SDS011;35400;45.472;-122.822;2022-09-12T03:48:01;19.70;;;15.57;;
6374;SDS011;35400;45.472;-122.822;2022-09-12T03:50:29;18.95;;;15.15;;
6374;SDS011;35400;45.472;-122.822;2022-09-12T03:52:57;20.40;;;16.30;;
6374;SDS011;35400;45.472;-122.822;2022-09-12T03:55:24;19.55;;;16.60;;
6374;SDS011;35400;45.472;-122.822;2022-09-12T03:57:52;21.65;;;16.45;;
6374;SDS011;35400;45.472;-122.822;2022-09-12T04:00:19;20.48;;;16.05;;
6374;SDS011;35400;45.472;-122.822;2022-09-12T04:02:47;21.20;;;16.33;;
6374;SDS011;35400;45.472;-122.822;2022-09-12T04:05:13;19.17;;;16.30;;
6374;SDS011;35400;45.472;-122.822;2022-09-12T04:07:40;19.27;;;16.33;;
6374;SDS011;35400;45.472;-122.822;2022-09-12T04:10:07;21.55;;;16.60;;
6374;SDS011;35400;45.472;-122.822;2022-09-12T04:12:34;22.30;;;16.67;;
6374;SDS011;35400;45.472;-122.822;2022-09-12T04:15:01;19.20;;;16.83;;
6374;SDS011;35400;45.472;-122.822;2022-09-12T04:17:28;20.20;;;16.55;;
6374;SDS011;35400;45.472;-122.822;2022-09-12T04:19:55;19.77;;;16.38;;
6374;SDS011;35400;45.472;-122.822;2022-09-12T04:22:21;21.17;;;16.30;;
6374;SDS011;35400;45.472;-122.822;2022-09-12T04:24:48;20.77;;;16.90;;
6374;SDS011;35400;45.472;-122.822;2022-09-12T04:27:15;19.48;;;16.63;;
6374;SDS011;35400;45.472;-122.822;2022-09-12T04:29:42;20.58;;;17.65;;
6374;SDS011;35400;45.472;-122.822;2022-09-12T04:32:08;22.98;;;17.13;;
6374;SDS011;35400;45.472;-122.822;2022-09-12T04:34:35;19.48;;;17.40;;
6374;SDS011;35400;45.472;-122.822;2022-09-12T04:37:02;20.75;;;17.58;;
6374;SDS011;35400;45.472;-122.822;2022-09-12T04:39:29;20.50;;;18.35;;
6374;SDS011;35400;45.472;-122.822;2022-09-12T04:41:56;22.08;;;18.75;;
6374;SDS011;35400;45.472;-122.822;2022-09-12T04:44:22;22.08;;;18.02;;
6374;SDS011;35400;45.472;-122.822;2022-09-12T04:46:49;23.98;;;17.95;;
6374;SDS011;35400;45.472;-122.822;2022-09-12T04:49:17;23.80;;;18.85;;
6374;SDS011;35400;45.472;-122.822;2022-09-12T04:51:44;21.15;;;18.15;;
6374;SDS011;35400;45.472;-122.822;2022-09-12T04:54:12;26.35;;;18.42;;
6374;SDS011;35400;45.472;-122.822;2022-09-12T04:56:41;22.67;;;19.42;;
6374;SDS011;35400;45.472;-122.822;2022-09-12T04:59:11;23.63;;;18.17;;
6374;SDS011;35400;45.472;-122.822;2022-09-12T05:01:39;27.63;;;19.00;;
6374;SDS011;35400;45.472;-122.822;2022-09-12T05:04:06;24.33;;;19.27;;
6374;SDS011;35400;45.472;-122.822;2022-09-12T05:06:35;24.27;;;18.80;;
6374;SDS011;35400;45.472;-122.822;2022-09-12T05:09:03;25.70;;;19.58;;
6374;SDS011;35400;45.472;-122.822;2022-09-12T05:11:33;22.33;;;19.83;;
6374;SDS011;35400;45.472;-122.822;2022-09-12T05:14:02;22.93;;;19.27;;
6374;SDS011;35400;45.472;-122.822;2022-09-12T05:16:29;25.00;;;21.03;;
6374;SDS011;35400;45.472;-122.822;2022-09-12T05:18:57;25.00;;;19.87;;
6374;SDS011;35400;45.472;-122.822;2022-09-12T05:21:25;24.70;;;20.17;;
6374;SDS011;35400;45.472;-122.822;2022-09-12T05:23:53;30.83;;;21.77;;
6374;SDS011;35400;45.472;-122.822;2022-09-12T05:26:21;26.58;;;21.00;;
6374;SDS011;35400;45.472;-122.822;2022-09-12T05:28:49;24.57;;;21.10;;
6374;SDS011;35400;45.472;-122.822;2022-09-12T05:31:26;30.53;;;21.97;;
6374;SDS011;35400;45.472;-122.822;2022-09-12T05:33:54;27.47;;;20.40;;
6374;SDS011;35400;45.472;-122.822;2022-09-12T05:38:50;28.83;;;20.10;;
6374;SDS011;35400;45.472;-122.822;2022-09-12T05:41:18;26.57;;;19.90;;
6374;SDS011;35400;45.472;-122.822;2022-09-12T05:43:50;27.73;;;20.27;;
6374;SDS011;35400;45.472;-122.822;2022-09-12T05:46:19;21.20;;;18.63;;
6374;SDS011;35400;45.472;-122.822;2022-09-12T05:48:47;23.10;;;18.33;;
6374;SDS011;35400;45.472;-122.822;2022-09-12T05:51:16;22.87;;;18.50;;
6374;SDS011;35400;45.472;-122.822;2022-09-12T05:53:46;26.03;;;18.93;;
6374;SDS011;35400;45.472;-122.822;2022-09-12T05:56:19;21.87;;;19.27;;
6374;SDS011;35400;45.472;-122.822;2022-09-12T05:58:57;22.50;;;18.50;;
6374;SDS011;35400;45.472;-122.822;2022-09-12T06:01:29;25.20;;;19.57;;
6374;SDS011;35400;45.472;-122.822;2022-09-12T06:03:58;25.30;;;18.63;;
6374;SDS011;35400;45.472;-122.822;2022-09-12T06:06:26;22.95;;;18.73;;
6374;SDS011;35400;45.472;-122.822;2022-09-12T06:08:55;25.60;;;19.53;;
6374;SDS011;35400;45.472;-122.822;2022-09-12T06:11:25;26.67;;;18.60;;
6374;SDS011;35400;45.472;-122.822;2022-09-12T06:13:54;29.93;;;19.00;;
6374;SDS011;35400;45.472;-122.822;2022-09-12T06:16:24;22.10;;;17.90;;
6374;SDS011;35400;45.472;-122.822;2022-09-12T06:18:53;21.17;;;18.00;;
6374;SDS011;35400;45.472;-122.822;2022-09-12T06:21:21;25.40;;;19.33;;
6374;SDS011;35400;45.472;-122.822;2022-09-12T06:23:50;22.97;;;17.60;;
6374;SDS011;35400;45.472;-122.822;2022-09-12T06:26:18;23.27;;;19.38;;
6374;SDS011;35400;45.472;-122.822;2022-09-12T06:28:48;22.30;;;18.67;;
6374;SDS011;35400;45.472;-122.822;2022-09-12T06:31:17;27.13;;;20.27;;
6374;SDS011;35400;45.472;-122.822;2022-09-12T06:33:47;26.50;;;19.27;;
6374;SDS011;35400;45.472;-122.822;2022-09-12T06:36:19;24.97;;;19.60;;
6374;SDS011;35400;45.472;-122.822;2022-09-12T06:38:52;25.53;;;19.43;;
6374;SDS011;35400;45.472;-122.822;2022-09-12T06:41:22;26.67;;;20.07;;
6374;SDS011;35400;45.472;-122.822;2022-09-12T06:43:49;24.10;;;20.27;;
6374;SDS011;35400;45.472;-122.822;2022-09-12T06:46:16;23.93;;;19.43;;
6374;SDS011;35400;45.472;-122.822;2022-09-12T06:48:43;23.63;;;16.23;;
6374;SDS011;35400;45.472;-122.822;2022-09-12T06:51:12;22.00;;;15.43;;
6374;SDS011;35400;45.472;-122.822;2022-09-12T06:53:40;25.43;;;14.97;;
6374;SDS011;35400;45.472;-122.822;2022-09-12T06:58:40;22.60;;;14.47;;
6374;SDS011;35400;45.472;-122.822;2022-09-12T07:03:37;20.37;;;14.10;;
6374;SDS011;35400;45.472;-122.822;2022-09-12T07:06:05;22.00;;;14.00;;
6374;SDS011;35400;45.472;-122.822;2022-09-12T07:08:34;22.27;;;13.67;;
6374;SDS011;35400;45.472;-122.822;2022-09-12T07:11:09;18.00;;;12.60;;
6374;SDS011;35400;45.472;-122.822;2022-09-12T07:13:37;20.97;;;13.17;;
6374;SDS011;35400;45.472;-122.822;2022-09-12T07:16:07;21.00;;;12.27;;
6374;SDS011;35400;45.472;-122.822;2022-09-12T07:18:35;26.70;;;13.03;;
6374;SDS011;35400;45.472;-122.822;2022-09-12T07:21:03;21.57;;;12.73;;
6374;SDS011;35400;45.472;-122.822;2022-09-12T07:23:36;20.57;;;13.40;;
6374;SDS011;35400;45.472;-122.822;2022-09-12T07:26:05;24.97;;;13.07;;
6374;SDS011;35400;45.472;-122.822;2022-09-12T07:28:32;23.33;;;13.33;;
6374;SDS011;35400;45.472;-122.822;2022-09-12T07:31:06;28.50;;;13.20;;
6374;SDS011;35400;45.472;-122.822;2022-09-12T07:33:39;18.93;;;12.30;;
6374;SDS011;35400;45.472;-122.822;2022-09-12T07:36:07;20.43;;;12.17;;
6374;SDS011;35400;45.472;-122.822;2022-09-12T07:38:37;21.87;;;13.13;;
6374;SDS011;35400;45.472;-122.822;2022-09-12T07:41:15;19.37;;;11.13;;
6374;SDS011;35400;45.472;-122.822;2022-09-12T07:43:46;22.63;;;13.27;;
6374;SDS011;35400;45.472;-122.822;2022-09-12T07:46:16;22.40;;;12.57;;
6374;SDS011;35400;45.472;-122.822;2022-09-12T07:48:43;25.70;;;13.17;;
6374;SDS011;35400;45.472;-122.822;2022-09-12T07:51:14;23.63;;;13.20;;
6374;SDS011;35400;45.472;-122.822;2022-09-12T07:53:41;21.00;;;12.70;;
6374;SDS011;35400;45.472;-122.822;2022-09-12T07:56:09;22.53;;;12.60;;
6374;SDS011;35400;45.472;-122.822;2022-09-12T07:58:37;17.70;;;12.13;;
6374;SDS011;35400;45.472;-122.822;2022-09-12T08:01:09;20.87;;;12.67;;
6374;SDS011;35400;45.472;-122.822;2022-09-12T08:03:40;21.10;;;12.03;;
6374;SDS011;35400;45.472;-122.822;2022-09-12T08:06:09;24.70;;;12.83;;
6374;SDS011;35400;45.472;-122.822;2022-09-12T08:08:41;22.03;;;12.97;;
6374;SDS011;35400;45.472;-122.822;2022-09-12T08:11:09;22.97;;;13.40;;
6374;SDS011;35400;45.472;-122.822;2022-09-12T08:13:38;23.37;;;13.20;;
6374;SDS011;35400;45.472;-122.822;2022-09-12T08:16:09;19.03;;;12.70;;
6374;SDS011;35400;45.472;-122.822;2022-09-12T08:18:37;21.07;;;12.80;;
6374;SDS011;35400;45.472;-122.822;2022-09-12T08:21:06;18.37;;;12.13;;
6374;SDS011;35400;45.472;-122.822;2022-09-12T08:23:44;23.27;;;13.30;;
6374;SDS011;35400;45.472;-122.822;2022-09-12T08:26:12;21.57;;;14.03;;
6374;SDS011;35400;45.472;-122.822;2022-09-12T08:28:39;22.00;;;12.57;;
6374;SDS011;35400;45.472;-122.822;2022-09-12T08:31:11;25.67;;;13.03;;
6374;SDS011;35400;45.472;-122.822;2022-09-12T08:33:40;22.87;;;12.73;;
6374;SDS011;35400;45.472;-122.822;2022-09-12T08:36:11;22.00;;;12.37;;
6374;SDS011;35400;45.472;-122.822;2022-09-12T08:38:43;23.10;;;12.87;;
6374;SDS011;35400;45.472;-122.822;2022-09-12T08:44:25;21.00;;;11.77;;
6374;SDS011;35400;45.472;-122.822;2022-09-12T08:49:47;20.50;;;13.33;;
6374;SDS011;35400;45.472;-122.822;2022-09-12T08:52:18;20.67;;;12.83;;
6374;SDS011;35400;45.472;-122.822;2022-09-12T08:54:52;17.90;;;12.13;;
6374;SDS011;35400;45.472;-122.822;2022-09-12T08:57:21;22.97;;;12.73;;
6374;SDS011;35400;45.472;-122.822;2022-09-12T08:59:48;24.30;;;13.07;;
6374;SDS011;35400;45.472;-122.822;2022-09-12T09:05:21;21.20;;;12.70;;
6374;SDS011;35400;45.472;-122.822;2022-09-12T09:16:30;18.67;;;12.70;;
6374;SDS011;35400;45.472;-122.822;2022-09-12T09:19:04;22.63;;;12.60;;
6374;SDS011;35400;45.472;-122.822;2022-09-12T09:21:40;26.30;;;14.10;;
6374;SDS011;35400;45.472;-122.822;2022-09-12T09:24:11;21.43;;;13.33;;
6374;SDS011;35400;45.472;-122.822;2022-09-12T09:29:18;20.40;;;13.53;;
6374;SDS011;35400;45.472;-122.822;2022-09-12T09:31:48;21.00;;;13.40;;
6374;SDS011;35400;45.472;-122.822;2022-09-12T09:34:21;20.87;;;13.40;;
6374;SDS011;35400;45.472;-122.822;2022-09-12T09:42:24;27.37;;;14.50;;
6374;SDS011;35400;45.472;-122.822;2022-09-12T09:45:12;25.63;;;12.90;;
6374;SDS011;35400;45.472;-122.822;2022-09-12T09:48:12;24.23;;;13.67;;
6374;SDS011;35400;45.472;-122.822;2022-09-12T09:50:35;22.53;;;12.97;;
6374;SDS011;35400;45.472;-122.822;2022-09-12T09:53:03;21.70;;;13.87;;
6374;SDS011;35400;45.472;-122.822;2022-09-12T09:55:37;23.13;;;13.77;;
6374;SDS011;35400;45.472;-122.822;2022-09-12T09:58:07;23.40;;;13.53;;
6374;SDS011;35400;45.472;-122.822;2022-09-12T10:00:34;23.87;;;12.73;;
6374;SDS011;35400;45.472;-122.822;2022-09-12T10:03:04;23.23;;;13.27;;
6374;SDS011;35400;45.472;-122.822;2022-09-12T10:05:44;21.27;;;13.10;;
6374;SDS011;35400;45.472;-122.822;2022-09-12T10:10:55;21.70;;;13.50;;
6374;SDS011;35400;45.472;-122.822;2022-09-12T10:13:27;15.87;;;12.37;;
6374;SDS011;35400;45.472;-122.822;2022-09-12T10:16:27;23.40;;;13.60;;
6374;SDS011;35400;45.472;-122.822;2022-09-12T10:18:55;22.30;;;13.23;;
6374;SDS011;35400;45.472;-122.822;2022-09-12T10:21:30;23.63;;;14.00;;
6374;SDS011;35400;45.472;-122.822;2022-09-12T10:26:37;18.23;;;12.50;;
6374;SDS011;35400;45.472;-122.822;2022-09-12T10:29:10;24.83;;;12.47;;
6374;SDS011;35400;45.472;-122.822;2022-09-12T10:31:42;23.70;;;13.53;;
6374;SDS011;35400;45.472;-122.822;2022-09-12T10:34:20;22.70;;;13.60;;
6374;SDS011;35400;45.472;-122.822;2022-09-12T10:36:53;20.70;;;13.13;;
6374;SDS011;35400;45.472;-122.822;2022-09-12T10:39:26;23.70;;;12.83;;
6374;SDS011;35400;45.472;-122.822;2022-09-12T10:41:53;23.13;;;13.30;;
6374;SDS011;35400;45.472;-122.822;2022-09-12T10:44:25;21.03;;;13.33;;
6374;SDS011;35400;45.472;-122.822;2022-09-12T10:46:53;20.83;;;13.43;;
6374;SDS011;35400;45.472;-122.822;2022-09-12T10:49:30;20.63;;;13.40;;
6374;SDS011;35400;45.472;-122.822;2022-09-12T10:52:20;23.77;;;13.53;;
6374;SDS011;35400;45.472;-122.822;2022-09-12T10:54:51;21.27;;;12.90;;
6374;SDS011;35400;45.472;-122.822;2022-09-12T10:57:26;20.97;;;13.63;;
6374;SDS011;35400;45.472;-122.822;2022-09-12T11:00:19;22.07;;;13.17;;
6374;SDS011;35400;45.472;-122.822;2022-09-12T11:03:01;22.73;;;13.13;;
6374;SDS011;35400;45.472;-122.822;2022-09-12T11:14:00;24.23;;;13.03;;
6374;SDS011;35400;45.472;-122.822;2022-09-12T11:16:52;23.40;;;13.43;;
6374;SDS011;35400;45.472;-122.822;2022-09-12T11:19:47;21.20;;;12.73;;
6374;SDS011;35400;45.472;-122.822;2022-09-12T11:22:51;17.93;;;12.70;;
6374;SDS011;35400;45.472;-122.822;2022-09-12T11:36:20;22.73;;;13.20;;
6374;SDS011;35400;45.472;-122.822;2022-09-12T11:41:30;22.80;;;13.63;;
6374;SDS011;35400;45.472;-122.822;2022-09-12T11:46:42;20.13;;;12.87;;
6374;SDS011;35400;45.472;-122.822;2022-09-12T12:08:15;21.87;;;13.33;;
6374;SDS011;35400;45.472;-122.822;2022-09-12T12:11:03;21.20;;;13.57;;
6374;SDS011;35400;45.472;-122.822;2022-09-12T12:13:40;20.80;;;13.73;;
6374;SDS011;35400;45.472;-122.822;2022-09-12T12:16:26;21.50;;;13.53;;
6374;SDS011;35400;45.472;-122.822;2022-09-12T12:19:41;22.40;;;14.80;;
6374;SDS011;35400;45.472;-122.822;2022-09-12T12:21:44;20.03;;;13.33;;
6374;SDS011;35400;45.472;-122.822;2022-09-12T12:24:15;20.97;;;13.43;;
6374;SDS011;35400;45.472;-122.822;2022-09-12T12:45:00;19.40;;;14.03;;
6374;SDS011;35400;45.472;-122.822;2022-09-12T12:55:19;20.40;;;13.33;;
6374;SDS011;35400;45.472;-122.822;2022-09-12T12:57:56;22.93;;;13.27;;
6374;SDS011;35400;45.472;-122.822;2022-09-12T13:03:01;19.70;;;12.63;;
6374;SDS011;35400;45.472;-122.822;2022-09-12T13:05:51;18.77;;;12.93;;
6374;SDS011;35400;45.472;-122.822;2022-09-12T13:08:29;21.83;;;12.77;;
6374;SDS011;35400;45.472;-122.822;2022-09-12T13:11:03;18.87;;;13.00;;
6374;SDS011;35400;45.472;-122.822;2022-09-12T13:13:44;19.87;;;14.03;;
6374;SDS011;35400;45.472;-122.822;2022-09-12T13:16:35;20.47;;;13.40;;
6374;SDS011;35400;45.472;-122.822;2022-09-12T13:19:06;20.70;;;13.47;;
6374;SDS011;35400;45.472;-122.822;2022-09-12T13:21:58;22.50;;;13.03;;
6374;SDS011;35400;45.472;-122.822;2022-09-12T13:24:30;20.63;;;13.00;;
6374;SDS011;35400;45.472;-122.822;2022-09-12T13:26:57;20.80;;;12.97;;
6374;SDS011;35400;45.472;-122.822;2022-09-12T13:29:25;20.70;;;13.60;;
6374;SDS011;35400;45.472;-122.822;2022-09-12T13:31:54;21.83;;;14.37;;
6374;SDS011;35400;45.472;-122.822;2022-09-12T13:34:33;20.13;;;13.47;;
6374;SDS011;35400;45.472;-122.822;2022-09-12T13:37:24;25.17;;;14.73;;
6374;SDS011;35400;45.472;-122.822;2022-09-12T13:43:03;24.30;;;14.00;;
6374;SDS011;35400;45.472;-122.822;2022-09-12T13:45:34;22.10;;;15.20;;
6374;SDS011;35400;45.472;-122.822;2022-09-12T13:48:04;23.07;;;13.40;;
6374;SDS011;35400;45.472;-122.822;2022-09-12T13:50:38;21.03;;;13.60;;
6374;SDS011;35400;45.472;-122.822;2022-09-12T13:53:16;20.23;;;13.73;;
6374;SDS011;35400;45.472;-122.822;2022-09-12T13:55:54;19.57;;;13.33;;
6374;SDS011;35400;45.472;-122.822;2022-09-12T13:58:27;24.13;;;13.90;;
6374;SDS011;35400;45.472;-122.822;2022-09-12T14:01:20;21.00;;;13.00;;
6374;SDS011;35400;45.472;-122.822;2022-09-12T14:03:55;24.33;;;13.87;;
6374;SDS011;35400;45.472;-122.822;2022-09-12T14:09:20;20.70;;;13.73;;
6374;SDS011;35400;45.472;-122.822;2022-09-12T14:11:57;19.90;;;13.33;;
6374;SDS011;35400;45.472;-122.822;2022-09-12T14:14:31;21.57;;;14.43;;
6374;SDS011;35400;45.472;-122.822;2022-09-12T14:17:01;22.53;;;13.87;;
6374;SDS011;35400;45.472;-122.822;2022-09-12T14:19:57;20.33;;;12.73;;
6374;SDS011;35400;45.472;-122.822;2022-09-12T14:22:28;18.73;;;13.67;;
6374;SDS011;35400;45.472;-122.822;2022-09-12T14:24:56;20.57;;;13.50;;
6374;SDS011;35400;45.472;-122.822;2022-09-12T14:27:25;19.03;;;12.70;;
6374;SDS011;35400;45.472;-122.822;2022-09-12T14:35:28;17.70;;;13.83;;
6374;SDS011;35400;45.472;-122.822;2022-09-12T14:37:57;22.97;;;13.67;;
6374;SDS011;35400;45.472;-122.822;2022-09-12T14:41:01;21.27;;;14.63;;
6374;SDS011;35400;45.472;-122.822;2022-09-12T14:43:33;18.90;;;13.93;;
6374;SDS011;35400;45.472;-122.822;2022-09-12T14:48:59;21.27;;;14.40;;
6374;SDS011;35400;45.472;-122.822;2022-09-12T14:56:56;19.33;;;14.63;;
6374;SDS011;35400;45.472;-122.822;2022-09-12T14:59:29;17.63;;;13.33;;
6374;SDS011;35400;45.472;-122.822;2022-09-12T15:04:48;24.03;;;14.37;;
6374;SDS011;35400;45.472;-122.822;2022-09-12T15:09:56;27.80;;;16.97;;
6374;SDS011;35400;45.472;-122.822;2022-09-12T15:12:30;27.93;;;16.37;;
6374;SDS011;35400;45.472;-122.822;2022-09-12T15:15:19;23.57;;;14.57;;
6374;SDS011;35400;45.472;-122.822;2022-09-12T15:17:45;25.80;;;17.17;;
6374;SDS011;35400;45.472;-122.822;2022-09-12T15:20:12;21.17;;;15.50;;
6374;SDS011;35400;45.472;-122.822;2022-09-12T15:22:40;26.30;;;16.57;;
6374;SDS011;35400;45.472;-122.822;2022-09-12T15:25:08;27.83;;;16.57;;
6374;SDS011;35400;45.472;-122.822;2022-09-12T15:27:37;27.87;;;17.60;;
6374;SDS011;35400;45.472;-122.822;2022-09-12T15:30:06;28.67;;;16.80;;
6374;SDS011;35400;45.472;-122.822;2022-09-12T15:32:34;30.47;;;17.10;;
6374;SDS011;35400;45.472;-122.822;2022-09-12T15:35:02;25.83;;;16.60;;
6374;SDS011;35400;45.472;-122.822;2022-09-12T15:37:29;25.97;;;17.13;;
6374;SDS011;35400;45.472;-122.822;2022-09-12T15:39:56;27.17;;;16.10;;
6374;SDS011;35400;45.472;-122.822;2022-09-12T15:42:28;23.60;;;16.67;;
6374;SDS011;35400;45.472;-122.822;2022-09-12T15:44:56;26.20;;;17.17;;
6374;SDS011;35400;45.472;-122.822;2022-09-12T15:47:24;23.87;;;16.63;;
6374;SDS011;35400;45.472;-122.822;2022-09-12T15:49:51;22.00;;;16.07;;
6374;SDS011;35400;45.472;-122.822;2022-09-12T15:52:18;20.83;;;15.83;;
6374;SDS011;35400;45.472;-122.822;2022-09-12T15:54:44;22.63;;;15.47;;
6374;SDS011;35400;45.472;-122.822;2022-09-12T15:57:11;20.07;;;14.73;;
6374;SDS011;35400;45.472;-122.822;2022-09-12T15:59:38;24.07;;;15.63;;
6374;SDS011;35400;45.472;-122.822;2022-09-12T16:02:05;24.23;;;15.40;;
6374;SDS011;35400;45.472;-122.822;2022-09-12T16:04:34;24.70;;;15.80;;
6374;SDS011;35400;45.472;-122.822;2022-09-12T16:07:00;23.23;;;14.90;;
6374;SDS011;35400;45.472;-122.822;2022-09-12T16:09:27;20.57;;;15.53;;
6374;SDS011;35400;45.472;-122.822;2022-09-12T16:11:54;22.20;;;15.80;;
6374;SDS011;35400;45.472;-122.822;2022-09-12T16:14:21;26.10;;;15.83;;
6374;SDS011;35400;45.472;-122.822;2022-09-12T16:16:51;24.10;;;15.50;;
6374;SDS011;35400;45.472;-122.822;2022-09-12T16:19:19;28.90;;;15.60;;
6374;SDS011;35400;45.472;-122.822;2022-09-12T16:21:46;23.30;;;14.53;;
6374;SDS011;35400;45.472;-122.822;2022-09-12T16:24:14;25.60;;;16.90;;
6374;SDS011;35400;45.472;-122.822;2022-09-12T16:26:41;21.23;;;15.63;;
6374;SDS011;35400;45.472;-122.822;2022-09-12T16:29:08;23.73;;;16.00;;
6374;SDS011;35400;45.472;-122.822;2022-09-12T16:31:37;23.20;;;15.77;;
6374;SDS011;35400;45.472;-122.822;2022-09-12T16:34:04;20.00;;;15.77;;
6374;SDS011;35400;45.472;-122.822;2022-09-12T16:36:31;23.27;;;16.23;;
6374;SDS011;35400;45.472;-122.822;2022-09-12T16:38:58;21.87;;;15.73;;
6374;SDS011;35400;45.472;-122.822;2022-09-12T16:41:25;26.07;;;17.50;;
6374;SDS011;35400;45.472;-122.822;2022-09-12T16:43:52;25.67;;;16.43;;
6374;SDS011;35400;45.472;-122.822;2022-09-12T16:46:20;24.83;;;16.80;;
6374;SDS011;35400;45.472;-122.822;2022-09-12T16:48:49;25.63;;;15.97;;
6374;SDS011;35400;45.472;-122.822;2022-09-12T16:51:18;24.87;;;15.50;;
6374;SDS011;35400;45.472;-122.822;2022-09-12T16:53:47;25.27;;;16.73;;
6374;SDS011;35400;45.472;-122.822;2022-09-12T16:56:14;25.27;;;16.30;;
6374;SDS011;35400;45.472;-122.822;2022-09-12T16:58:41;25.63;;;16.63;;
6374;SDS011;35400;45.472;-122.822;2022-09-12T17:01:21;30.30;;;17.20;;
6374;SDS011;35400;45.472;-122.822;2022-09-12T17:03:56;34.40;;;17.20;;
6374;SDS011;35400;45.472;-122.822;2022-09-12T17:06:24;23.77;;;15.90;;
6374;SDS011;35400;45.472;-122.822;2022-09-12T17:08:52;26.23;;;16.60;;
6374;SDS011;35400;45.472;-122.822;2022-09-12T17:11:21;21.40;;;16.10;;
6374;SDS011;35400;45.472;-122.822;2022-09-12T17:13:54;25.67;;;15.97;;
6374;SDS011;35400;45.472;-122.822;2022-09-12T17:16:22;25.03;;;15.77;;
6374;SDS011;35400;45.472;-122.822;2022-09-12T17:18:50;28.37;;;17.27;;
6374;SDS011;35400;45.472;-122.822;2022-09-12T17:21:17;23.07;;;15.77;;
6374;SDS011;35400;45.472;-122.822;2022-09-12T17:23:45;26.27;;;17.20;;
6374;SDS011;35400;45.472;-122.822;2022-09-12T17:26:12;26.27;;;17.43;;
6374;SDS011;35400;45.472;-122.822;2022-09-12T17:28:39;22.53;;;15.43;;
6374;SDS011;35400;45.472;-122.822;2022-09-12T17:31:08;25.93;;;16.37;;
6374;SDS011;35400;45.472;-122.822;2022-09-12T17:33:37;30.80;;;18.37;;
6374;SDS011;35400;45.472;-122.822;2022-09-12T17:36:08;22.90;;;16.47;;
6374;SDS011;35400;45.472;-122.822;2022-09-12T17:38:38;26.30;;;17.03;;